sensor_id;sensor_type;location;lat;lon;timestamp;temperature;humidity
9564;DHT22;4820;50.870;4.702;2022-12-18T00:02:22;-3.40;99.90
9564;DHT22;4820;50.870;4.702;2022-12-18T00:04:48;-3.30;99.90
9564;DHT22;4820;50.870;4.702;2022-12-18T00:07:13;-3.30;99.90
9564;DHT22;4820;50.870;4.702;2022-12-18T00:09:39;-3.30;99.90
9564;DHT22;4820;50.870;4.702;2022-12-18T00:12:05;-3.30;99.90
9564;DHT22;4820;50.870;4.702;2022-12-18T00:14:31;-3.40;99.90
9564;DHT22;4820;50.870;4.702;2022-12-18T00:16:56;-3.60;99.90
9564;DHT22;4820;50.870;4.702;2022-12-18T00:19:23;-3.60;99.90
9564;DHT22;4820;50.870;4.702;2022-12-18T00:21:49;-3.50;99.90
9564;DHT22;4820;50.870;4.702;2022-12-18T00:24:15;-3.60;99.90
9564;DHT22;4820;50.870;4.702;2022-12-18T00:26:41;-3.80;99.90
9564;DHT22;4820;50.870;4.702;2022-12-18T00:29:10;-3.80;99.90
9564;DHT22;4820;50.870;4.702;2022-12-18T00:31:38;-3.90;99.90
9564;DHT22;4820;50.870;4.702;2022-12-18T00:34:03;-3.90;99.90
9564;DHT22;4820;50.870;4.702;2022-12-18T00:36:32;-4.00;99.90
9564;DHT22;4820;50.870;4.702;2022-12-18T00:39:00;-4.10;99.90
9564;DHT22;4820;50.870;4.702;2022-12-18T00:41:26;-4.10;99.90
9564;DHT22;4820;50.870;4.702;2022-12-18T00:44:13;-4.20;99.90
9564;DHT22;4820;50.870;4.702;2022-12-18T00:46:40;-4.10;99.90
9564;DHT22;4820;50.870;4.702;2022-12-18T00:49:06;-4.00;99.90
9564;DHT22;4820;50.870;4.702;2022-12-18T00:51:32;-3.90;99.90
9564;DHT22;4820;50.870;4.702;2022-12-18T00:53:58;-3.80;99.90
9564;DHT22;4820;50.870;4.702;2022-12-18T00:56:24;-3.80;99.90
9564;DHT22;4820;50.870;4.702;2022-12-18T00:58:50;-3.70;99.90
9564;DHT22;4820;50.870;4.702;2022-12-18T01:01:16;-3.70;99.90
9564;DHT22;4820;50.870;4.702;2022-12-18T01:03:42;-3.70;99.90
9564;DHT22;4820;50.870;4.702;2022-12-18T01:06:12;-3.60;99.90
9564;DHT22;4820;50.870;4.702;2022-12-18T01:08:38;-3.60;99.90
9564;DHT22;4820;50.870;4.702;2022-12-18T01:11:15;-3.60;99.90
9564;DHT22;4820;50.870;4.702;2022-12-18T01:13:42;-3.60;99.90
9564;DHT22;4820;50.870;4.702;2022-12-18T01:16:10;-3.60;99.90
9564;DHT22;4820;50.870;4.702;2022-12-18T01:18:36;-3.60;99.90
9564;DHT22;4820;50.870;4.702;2022-12-18T01:21:09;-3.60;99.90
9564;DHT22;4820;50.870;4.702;2022-12-18T01:23:35;-3.60;99.90
9564;DHT22;4820;50.870;4.702;2022-12-18T01:26:24;-3.60;99.90
9564;DHT22;4820;50.870;4.702;2022-12-18T01:28:50;-3.60;99.90
9564;DHT22;4820;50.870;4.702;2022-12-18T01:31:22;-3.60;99.90
9564;DHT22;4820;50.870;4.702;2022-12-18T01:33:49;-3.70;99.90
9564;DHT22;4820;50.870;4.702;2022-12-18T01:36:21;-3.90;99.90
9564;DHT22;4820;50.870;4.702;2022-12-18T01:38:47;-4.00;99.90
9564;DHT22;4820;50.870;4.702;2022-12-18T01:41:15;-4.00;99.90
9564;DHT22;4820;50.870;4.702;2022-12-18T01:46:19;-3.80;99.90
9564;DHT22;4820;50.870;4.702;2022-12-18T01:48:48;-3.80;99.90
9564;DHT22;4820;50.870;4.702;2022-12-18T01:51:16;-3.80;99.90
9564;DHT22;4820;50.870;4.702;2022-12-18T01:53:42;-3.90;99.90
9564;DHT22;4820;50.870;4.702;2022-12-18T01:56:13;-4.00;99.90
9564;DHT22;4820;50.870;4.702;2022-12-18T01:58:59;-4.00;99.90
9564;DHT22;4820;50.870;4.702;2022-12-18T02:01:26;-4.10;99.90
9564;DHT22;4820;50.870;4.702;2022-12-18T02:03:52;-4.20;99.90
9564;DHT22;4820;50.870;4.702;2022-12-18T02:06:32;-4.20;99.90
9564;DHT22;4820;50.870;4.702;2022-12-18T02:11:39;-4.00;99.90
9564;DHT22;4820;50.870;4.702;2022-12-18T02:19:47;-3.80;99.90
9564;DHT22;4820;50.870;4.702;2022-12-18T02:28:12;-3.70;99.90
9564;DHT22;4820;50.870;4.702;2022-12-18T02:30:39;-3.70;99.90
9564;DHT22;4820;50.870;4.702;2022-12-18T02:33:07;-3.70;99.90
9564;DHT22;4820;50.870;4.702;2022-12-18T02:35:34;-3.70;99.90
9564;DHT22;4820;50.870;4.702;2022-12-18T02:38:03;-3.70;99.90
9564;DHT22;4820;50.870;4.702;2022-12-18T02:40:30;-3.70;99.90
9564;DHT22;4820;50.870;4.702;2022-12-18T02:43:02;-3.70;99.90
9564;DHT22;4820;50.870;4.702;2022-12-18T02:45:28;-3.70;99.90
9564;DHT22;4820;50.870;4.702;2022-12-18T02:47:54;-3.70;99.90
9564;DHT22;4820;50.870;4.702;2022-12-18T02:50:31;-3.70;99.90
9564;DHT22;4820;50.870;4.702;2022-12-18T02:53:19;-3.70;99.90
9564;DHT22;4820;50.870;4.702;2022-12-18T03:01:08;-4.10;99.90
9564;DHT22;4820;50.870;4.702;2022-12-18T03:03:46;-4.20;99.90
9564;DHT22;4820;50.870;4.702;2022-12-18T03:06:24;-4.10;99.90
9564;DHT22;4820;50.870;4.702;2022-12-18T03:08:59;-4.10;99.90
9564;DHT22;4820;50.870;4.702;2022-12-18T03:11:26;-4.00;99.90
9564;DHT22;4820;50.870;4.702;2022-12-18T03:14:14;-4.00;99.90
9564;DHT22;4820;50.870;4.702;2022-12-18T03:16:41;-3.90;99.90
9564;DHT22;4820;50.870;4.702;2022-12-18T03:19:13;-3.90;99.90
9564;DHT22;4820;50.870;4.702;2022-12-18T03:21:45;-3.90;99.90
9564;DHT22;4820;50.870;4.702;2022-12-18T03:24:11;-3.90;99.90
9564;DHT22;4820;50.870;4.702;2022-12-18T03:26:40;-3.90;99.90
9564;DHT22;4820;50.870;4.702;2022-12-18T03:29:14;-4.00;99.90
9564;DHT22;4820;50.870;4.702;2022-12-18T03:31:47;-4.20;99.90
9564;DHT22;4820;50.870;4.702;2022-12-18T03:34:21;-4.30;99.90
9564;DHT22;4820;50.870;4.702;2022-12-18T03:36:48;-4.30;99.90
9564;DHT22;4820;50.870;4.702;2022-12-18T03:39:14;-4.30;99.90
9564;DHT22;4820;50.870;4.702;2022-12-18T03:44:29;-4.20;99.90
9564;DHT22;4820;50.870;4.702;2022-12-18T03:52:24;-4.10;99.90
9564;DHT22;4820;50.870;4.702;2022-12-18T03:54:52;-4.10;99.90
9564;DHT22;4820;50.870;4.702;2022-12-18T03:57:26;-4.10;99.90
9564;DHT22;4820;50.870;4.702;2022-12-18T03:59:56;-4.10;99.90
9564;DHT22;4820;50.870;4.702;2022-12-18T04:02:24;-4.10;99.90
9564;DHT22;4820;50.870;4.702;2022-12-18T04:04:52;-4.20;99.90
9564;DHT22;4820;50.870;4.702;2022-12-18T04:07:20;-4.20;99.90
9564;DHT22;4820;50.870;4.702;2022-12-18T04:09:48;-4.20;99.90
9564;DHT22;4820;50.870;4.702;2022-12-18T04:12:14;-4.20;99.90
9564;DHT22;4820;50.870;4.702;2022-12-18T04:14:40;-4.20;99.90
9564;DHT22;4820;50.870;4.702;2022-12-18T04:17:05;-4.10;99.90
9564;DHT22;4820;50.870;4.702;2022-12-18T04:19:31;-4.10;99.90
9564;DHT22;4820;50.870;4.702;2022-12-18T04:21:57;-4.10;99.90
9564;DHT22;4820;50.870;4.702;2022-12-18T04:24:22;-4.10;99.90
9564;DHT22;4820;50.870;4.702;2022-12-18T04:26:48;-4.10;99.90
9564;DHT22;4820;50.870;4.702;2022-12-18T04:29:13;-4.10;99.90
9564;DHT22;4820;50.870;4.702;2022-12-18T04:31:39;-4.10;99.90
9564;DHT22;4820;50.870;4.702;2022-12-18T04:34:05;-4.10;99.90
9564;DHT22;4820;50.870;4.702;2022-12-18T04:36:31;-4.20;99.90
9564;DHT22;4820;50.870;4.702;2022-12-18T04:38:57;-4.20;99.90
9564;DHT22;4820;50.870;4.702;2022-12-18T04:41:23;-4.30;99.90
9564;DHT22;4820;50.870;4.702;2022-12-18T04:43:48;-4.20;99.90
9564;DHT22;4820;50.870;4.702;2022-12-18T04:46:15;-4.20;99.90
9564;DHT22;4820;50.870;4.702;2022-12-18T04:48:40;-4.10;99.90
9564;DHT22;4820;50.870;4.702;2022-12-18T04:51:06;-4.10;99.90
9564;DHT22;4820;50.870;4.702;2022-12-18T04:53:33;-4.10;99.90
9564;DHT22;4820;50.870;4.702;2022-12-18T04:56:11;-4.20;99.90
9564;DHT22;4820;50.870;4.702;2022-12-18T04:58:40;-4.30;99.90
9564;DHT22;4820;50.870;4.702;2022-12-18T05:01:08;-4.40;99.90
9564;DHT22;4820;50.870;4.702;2022-12-18T05:03:35;-4.40;99.90
9564;DHT22;4820;50.870;4.702;2022-12-18T05:06:01;-4.40;99.90
9564;DHT22;4820;50.870;4.702;2022-12-18T05:08:26;-4.50;99.90
9564;DHT22;4820;50.870;4.702;2022-12-18T05:11:06;-4.50;99.90
9564;DHT22;4820;50.870;4.702;2022-12-18T05:13:32;-4.50;99.90
9564;DHT22;4820;50.870;4.702;2022-12-18T05:15:58;-4.60;99.90
9564;DHT22;4820;50.870;4.702;2022-12-18T05:18:24;-4.60;99.90
9564;DHT22;4820;50.870;4.702;2022-12-18T05:20:51;-4.60;99.90
9564;DHT22;4820;50.870;4.702;2022-12-18T05:23:17;-4.50;99.90
9564;DHT22;4820;50.870;4.702;2022-12-18T05:25:49;-4.60;99.90
9564;DHT22;4820;50.870;4.702;2022-12-18T05:28:15;-4.60;99.90
9564;DHT22;4820;50.870;4.702;2022-12-18T05:30:41;-4.60;99.90
9564;DHT22;4820;50.870;4.702;2022-12-18T05:33:06;-4.70;99.90
9564;DHT22;4820;50.870;4.702;2022-12-18T05:35:32;-4.70;99.90
9564;DHT22;4820;50.870;4.702;2022-12-18T05:37:58;-4.80;99.90
9564;DHT22;4820;50.870;4.702;2022-12-18T05:40:23;-4.80;99.90
9564;DHT22;4820;50.870;4.702;2022-12-18T05:42:49;-4.80;99.90
9564;DHT22;4820;50.870;4.702;2022-12-18T05:45:15;-4.80;99.90
9564;DHT22;4820;50.870;4.702;2022-12-18T05:47:40;-4.80;99.90
9564;DHT22;4820;50.870;4.702;2022-12-18T05:50:07;-4.80;99.90
9564;DHT22;4820;50.870;4.702;2022-12-18T05:52:33;-4.80;99.90
9564;DHT22;4820;50.870;4.702;2022-12-18T05:54:58;-4.80;99.90
9564;DHT22;4820;50.870;4.702;2022-12-18T05:57:24;-4.70;99.90
9564;DHT22;4820;50.870;4.702;2022-12-18T05:59:50;-4.70;99.90
9564;DHT22;4820;50.870;4.702;2022-12-18T06:02:15;-4.70;99.90
9564;DHT22;4820;50.870;4.702;2022-12-18T06:04:41;-4.70;99.90
9564;DHT22;4820;50.870;4.702;2022-12-18T06:07:07;-4.70;99.90
9564;DHT22;4820;50.870;4.702;2022-12-18T06:09:32;-4.70;99.90
9564;DHT22;4820;50.870;4.702;2022-12-18T06:11:58;-4.80;99.90
9564;DHT22;4820;50.870;4.702;2022-12-18T06:14:24;-4.80;99.90
9564;DHT22;4820;50.870;4.702;2022-12-18T06:16:53;-4.80;99.90
9564;DHT22;4820;50.870;4.702;2022-12-18T06:19:18;-4.70;99.90
9564;DHT22;4820;50.870;4.702;2022-12-18T06:21:44;-4.70;99.90
9564;DHT22;4820;50.870;4.702;2022-12-18T06:24:10;-4.70;99.90
9564;DHT22;4820;50.870;4.702;2022-12-18T06:26:38;-4.70;99.90
9564;DHT22;4820;50.870;4.702;2022-12-18T06:29:04;-4.70;99.90
9564;DHT22;4820;50.870;4.702;2022-12-18T06:31:30;-4.60;99.90
9564;DHT22;4820;50.870;4.702;2022-12-18T06:33:55;-4.60;99.90
9564;DHT22;4820;50.870;4.702;2022-12-18T06:36:21;-4.60;99.90
9564;DHT22;4820;50.870;4.702;2022-12-18T06:38:47;-4.60;99.90
9564;DHT22;4820;50.870;4.702;2022-12-18T06:41:15;-4.50;99.90
9564;DHT22;4820;50.870;4.702;2022-12-18T06:43:42;-4.50;99.90
9564;DHT22;4820;50.870;4.702;2022-12-18T06:46:08;-4.50;99.90
9564;DHT22;4820;50.870;4.702;2022-12-18T06:48:34;-4.50;99.90
9564;DHT22;4820;50.870;4.702;2022-12-18T06:51:00;-4.50;99.90
9564;DHT22;4820;50.870;4.702;2022-12-18T06:53:25;-4.50;99.90
9564;DHT22;4820;50.870;4.702;2022-12-18T06:55:51;-4.50;99.90
9564;DHT22;4820;50.870;4.702;2022-12-18T06:58:17;-4.50;99.90
9564;DHT22;4820;50.870;4.702;2022-12-18T07:00:43;-4.50;99.90
9564;DHT22;4820;50.870;4.702;2022-12-18T07:03:10;-4.50;99.90
9564;DHT22;4820;50.870;4.702;2022-12-18T07:05:39;-4.50;99.90
9564;DHT22;4820;50.870;4.702;2022-12-18T07:08:06;-4.50;99.90
9564;DHT22;4820;50.870;4.702;2022-12-18T07:10:31;-4.50;99.90
9564;DHT22;4820;50.870;4.702;2022-12-18T07:12:57;-4.50;99.90
9564;DHT22;4820;50.870;4.702;2022-12-18T07:15:23;-4.50;99.90
9564;DHT22;4820;50.870;4.702;2022-12-18T07:17:48;-4.50;99.90
9564;DHT22;4820;50.870;4.702;2022-12-18T07:20:15;-4.50;99.90
9564;DHT22;4820;50.870;4.702;2022-12-18T07:22:40;-4.50;99.90
9564;DHT22;4820;50.870;4.702;2022-12-18T07:25:07;-4.40;99.90
9564;DHT22;4820;50.870;4.702;2022-12-18T07:27:32;-4.40;99.90
9564;DHT22;4820;50.870;4.702;2022-12-18T07:29:58;-4.40;99.90
9564;DHT22;4820;50.870;4.702;2022-12-18T07:32:23;-4.40;99.90
9564;DHT22;4820;50.870;4.702;2022-12-18T07:34:49;-4.40;99.90
9564;DHT22;4820;50.870;4.702;2022-12-18T07:37:15;-4.40;99.90
9564;DHT22;4820;50.870;4.702;2022-12-18T07:39:40;-4.30;99.90
9564;DHT22;4820;50.870;4.702;2022-12-18T07:42:06;-4.40;99.90
9564;DHT22;4820;50.870;4.702;2022-12-18T07:44:50;-4.40;99.90
9564;DHT22;4820;50.870;4.702;2022-12-18T07:47:15;-4.60;99.90
9564;DHT22;4820;50.870;4.702;2022-12-18T07:49:41;-4.70;99.90
9564;DHT22;4820;50.870;4.702;2022-12-18T07:52:07;-4.80;99.90
9564;DHT22;4820;50.870;4.702;2022-12-18T07:54:33;-4.80;99.90
9564;DHT22;4820;50.870;4.702;2022-12-18T07:56:59;-4.90;99.90
9564;DHT22;4820;50.870;4.702;2022-12-18T07:59:25;-4.90;99.90
9564;DHT22;4820;50.870;4.702;2022-12-18T08:01:50;-4.90;99.90
9564;DHT22;4820;50.870;4.702;2022-12-18T08:04:16;-4.90;99.90
9564;DHT22;4820;50.870;4.702;2022-12-18T08:06:42;-4.80;99.90
9564;DHT22;4820;50.870;4.702;2022-12-18T08:09:08;-4.90;99.90
9564;DHT22;4820;50.870;4.702;2022-12-18T08:11:34;-4.90;99.90
9564;DHT22;4820;50.870;4.702;2022-12-18T08:14:00;-4.90;99.90
9564;DHT22;4820;50.870;4.702;2022-12-18T08:16:26;-4.80;99.90
9564;DHT22;4820;50.870;4.702;2022-12-18T08:18:53;-4.80;99.90
9564;DHT22;4820;50.870;4.702;2022-12-18T08:21:23;-4.70;99.90
9564;DHT22;4820;50.870;4.702;2022-12-18T08:23:50;-4.60;99.90
9564;DHT22;4820;50.870;4.702;2022-12-18T08:26:17;-4.50;99.90
9564;DHT22;4820;50.870;4.702;2022-12-18T08:28:43;-4.40;99.90
9564;DHT22;4820;50.870;4.702;2022-12-18T08:31:09;-4.30;99.90
9564;DHT22;4820;50.870;4.702;2022-12-18T08:33:37;-4.20;99.90
9564;DHT22;4820;50.870;4.702;2022-12-18T08:36:05;-4.20;99.90
9564;DHT22;4820;50.870;4.702;2022-12-18T08:38:35;-4.20;99.90
9564;DHT22;4820;50.870;4.702;2022-12-18T08:41:03;-4.30;99.90
9564;DHT22;4820;50.870;4.702;2022-12-18T08:43:29;-4.30;99.90
9564;DHT22;4820;50.870;4.702;2022-12-18T08:46:14;-4.30;99.90
9564;DHT22;4820;50.870;4.702;2022-12-18T08:48:39;-4.30;99.90
9564;DHT22;4820;50.870;4.702;2022-12-18T08:51:05;-4.20;99.90
9564;DHT22;4820;50.870;4.702;2022-12-18T08:53:31;-4.20;99.90
9564;DHT22;4820;50.870;4.702;2022-12-18T08:55:57;-4.00;99.90
9564;DHT22;4820;50.870;4.702;2022-12-18T08:58:23;-4.00;99.90
9564;DHT22;4820;50.870;4.702;2022-12-18T09:00:49;-3.90;99.90
9564;DHT22;4820;50.870;4.702;2022-12-18T09:03:17;-3.90;99.90
9564;DHT22;4820;50.870;4.702;2022-12-18T09:05:43;-3.90;99.90
9564;DHT22;4820;50.870;4.702;2022-12-18T09:08:09;-3.80;99.90
9564;DHT22;4820;50.870;4.702;2022-12-18T09:10:40;-3.60;99.90
9564;DHT22;4820;50.870;4.702;2022-12-18T09:13:06;-3.50;99.90
9564;DHT22;4820;50.870;4.702;2022-12-18T09:15:31;-3.40;99.90
9564;DHT22;4820;50.870;4.702;2022-12-18T09:17:58;-3.40;99.90
9564;DHT22;4820;50.870;4.702;2022-12-18T09:20:24;-3.30;99.90
9564;DHT22;4820;50.870;4.702;2022-12-18T09:22:50;-3.20;99.90
9564;DHT22;4820;50.870;4.702;2022-12-18T09:25:16;-3.20;99.90
9564;DHT22;4820;50.870;4.702;2022-12-18T09:27:47;-3.10;99.90
9564;DHT22;4820;50.870;4.702;2022-12-18T09:30:12;-3.00;99.90
9564;DHT22;4820;50.870;4.702;2022-12-18T09:32:38;-2.80;99.90
9564;DHT22;4820;50.870;4.702;2022-12-18T09:35:04;-2.70;99.90
9564;DHT22;4820;50.870;4.702;2022-12-18T09:37:30;-2.50;99.90
9564;DHT22;4820;50.870;4.702;2022-12-18T09:39:55;-2.40;99.90
9564;DHT22;4820;50.870;4.702;2022-12-18T09:42:22;-2.30;99.90
9564;DHT22;4820;50.870;4.702;2022-12-18T09:44:53;-2.30;99.90
9564;DHT22;4820;50.870;4.702;2022-12-18T09:47:30;-2.20;99.90
9564;DHT22;4820;50.870;4.702;2022-12-18T09:50:02;-2.10;99.90
9564;DHT22;4820;50.870;4.702;2022-12-18T09:52:34;-1.90;99.90
9564;DHT22;4820;50.870;4.702;2022-12-18T09:55:11;-2.00;99.90
9564;DHT22;4820;50.870;4.702;2022-12-18T09:57:49;-2.00;99.90
9564;DHT22;4820;50.870;4.702;2022-12-18T10:00:24;-2.00;99.90
9564;DHT22;4820;50.870;4.702;2022-12-18T10:02:53;-2.10;99.90
9564;DHT22;4820;50.870;4.702;2022-12-18T10:14:02;-1.70;99.90
9564;DHT22;4820;50.870;4.702;2022-12-18T10:16:49;-1.70;99.90
9564;DHT22;4820;50.870;4.702;2022-12-18T10:19:34;-1.70;99.90
9564;DHT22;4820;50.870;4.702;2022-12-18T10:22:11;-1.70;99.90
9564;DHT22;4820;50.870;4.702;2022-12-18T10:27:14;-1.60;99.90
9564;DHT22;4820;50.870;4.702;2022-12-18T10:29:42;-1.60;99.90
9564;DHT22;4820;50.870;4.702;2022-12-18T10:32:15;-1.70;99.90
9564;DHT22;4820;50.870;4.702;2022-12-18T10:34:45;-1.70;99.90
9564;DHT22;4820;50.870;4.702;2022-12-18T10:37:20;-1.60;99.90
9564;DHT22;4820;50.870;4.702;2022-12-18T10:40:12;-1.50;99.90
9564;DHT22;4820;50.870;4.702;2022-12-18T10:42:38;-1.40;99.90
9564;DHT22;4820;50.870;4.702;2022-12-18T10:47:34;-1.10;99.90
9564;DHT22;4820;50.870;4.702;2022-12-18T10:50:01;-0.90;99.90
9564;DHT22;4820;50.870;4.702;2022-12-18T10:52:28;-0.90;99.90
9564;DHT22;4820;50.870;4.702;2022-12-18T10:55:03;-0.80;99.90
9564;DHT22;4820;50.870;4.702;2022-12-18T10:57:38;-0.70;99.90
9564;DHT22;4820;50.870;4.702;2022-12-18T11:02:45;-0.70;99.90
9564;DHT22;4820;50.870;4.702;2022-12-18T11:05:24;-0.70;99.90
9564;DHT22;4820;50.870;4.702;2022-12-18T11:07:50;-0.70;99.90
9564;DHT22;4820;50.870;4.702;2022-12-18T11:10:18;-0.70;99.90
9564;DHT22;4820;50.870;4.702;2022-12-18T11:12:45;-0.70;99.90
9564;DHT22;4820;50.870;4.702;2022-12-18T11:15:25;-0.60;99.90
9564;DHT22;4820;50.870;4.702;2022-12-18T11:17:52;-0.60;99.90
9564;DHT22;4820;50.870;4.702;2022-12-18T11:20:34;-0.50;99.90
9564;DHT22;4820;50.870;4.702;2022-12-18T11:23:05;-0.40;99.90
9564;DHT22;4820;50.870;4.702;2022-12-18T11:25:37;-0.40;99.90
9564;DHT22;4820;50.870;4.702;2022-12-18T11:28:25;-0.20;99.90
9564;DHT22;4820;50.870;4.702;2022-12-18T11:33:38;-0.20;99.90
9564;DHT22;4820;50.870;4.702;2022-12-18T11:36:08;-0.20;99.90
9564;DHT22;4820;50.870;4.702;2022-12-18T11:38:37;-0.10;99.90
9564;DHT22;4820;50.870;4.702;2022-12-18T11:41:15;-0.10;99.90
9564;DHT22;4820;50.870;4.702;2022-12-18T11:46:24;0.00;99.90
9564;DHT22;4820;50.870;4.702;2022-12-18T11:49:01;0.00;99.90
9564;DHT22;4820;50.870;4.702;2022-12-18T11:51:38;0.00;99.90
9564;DHT22;4820;50.870;4.702;2022-12-18T11:54:13;0.00;99.90
9564;DHT22;4820;50.870;4.702;2022-12-18T11:56:53;-0.10;99.90
9564;DHT22;4820;50.870;4.702;2022-12-18T12:02:11;0.00;99.90
9564;DHT22;4820;50.870;4.702;2022-12-18T12:07:56;0.30;99.90
9564;DHT22;4820;50.870;4.702;2022-12-18T12:16:14;0.50;99.90
9564;DHT22;4820;50.870;4.702;2022-12-18T12:18:50;0.50;99.90
9564;DHT22;4820;50.870;4.702;2022-12-18T12:21:36;0.50;99.90
9564;DHT22;4820;50.870;4.702;2022-12-18T12:29:48;0.60;99.90
9564;DHT22;4820;50.870;4.702;2022-12-18T12:33:09;0.60;99.90
9564;DHT22;4820;50.870;4.702;2022-12-18T12:35:12;0.70;99.90
9564;DHT22;4820;50.870;4.702;2022-12-18T12:37:58;0.70;99.90
9564;DHT22;4820;50.870;4.702;2022-12-18T12:40:31;0.90;99.90
9564;DHT22;4820;50.870;4.702;2022-12-18T12:45:47;1.10;99.90
9564;DHT22;4820;50.870;4.702;2022-12-18T12:50:52;1.10;99.90
9564;DHT22;4820;50.870;4.702;2022-12-18T12:53:28;1.20;99.90
9564;DHT22;4820;50.870;4.702;2022-12-18T12:55:56;1.10;99.90
9564;DHT22;4820;50.870;4.702;2022-12-18T12:58:34;1.20;99.90
9564;DHT22;4820;50.870;4.702;2022-12-18T13:01:16;1.20;99.90
9564;DHT22;4820;50.870;4.702;2022-12-18T13:04:12;1.20;99.90
9564;DHT22;4820;50.870;4.702;2022-12-18T13:07:12;1.30;99.90
9564;DHT22;4820;50.870;4.702;2022-12-18T13:15:48;1.70;99.90
9564;DHT22;4820;50.870;4.702;2022-12-18T13:18:23;1.70;99.90
9564;DHT22;4820;50.870;4.702;2022-12-18T13:25:50;1.80;99.90
9564;DHT22;4820;50.870;4.702;2022-12-18T13:31:02;1.70;99.90
9564;DHT22;4820;50.870;4.702;2022-12-18T13:36:13;1.90;99.90
9564;DHT22;4820;50.870;4.702;2022-12-18T13:38:40;1.90;99.90
9564;DHT22;4820;50.870;4.702;2022-12-18T13:46:20;2.00;99.90
9564;DHT22;4820;50.870;4.702;2022-12-18T13:48:57;2.00;99.90
9564;DHT22;4820;50.870;4.702;2022-12-18T13:51:26;2.00;99.90
9564;DHT22;4820;50.870;4.702;2022-12-18T13:53:53;2.00;99.90
9564;DHT22;4820;50.870;4.702;2022-12-18T13:56:26;1.90;99.90
9564;DHT22;4820;50.870;4.702;2022-12-18T14:01:46;1.80;99.90
9564;DHT22;4820;50.870;4.702;2022-12-18T14:04:19;1.80;99.90
9564;DHT22;4820;50.870;4.702;2022-12-18T14:06:46;1.60;99.90
9564;DHT22;4820;50.870;4.702;2022-12-18T14:09:27;1.60;99.90
9564;DHT22;4820;50.870;4.702;2022-12-18T14:11:54;1.50;99.90
9564;DHT22;4820;50.870;4.702;2022-12-18T14:14:45;1.50;99.90
9564;DHT22;4820;50.870;4.702;2022-12-18T14:17:13;1.60;99.90
9564;DHT22;4820;50.870;4.702;2022-12-18T14:19:47;1.70;99.90
9564;DHT22;4820;50.870;4.702;2022-12-18T14:22:19;1.70;99.90
9564;DHT22;4820;50.870;4.702;2022-12-18T14:24:45;1.70;99.90
9564;DHT22;4820;50.870;4.702;2022-12-18T14:27:23;1.70;99.90
9564;DHT22;4820;50.870;4.702;2022-12-18T14:29:50;1.60;99.90
9564;DHT22;4820;50.870;4.702;2022-12-18T14:32:18;1.60;99.90
9564;DHT22;4820;50.870;4.702;2022-12-18T14:34:52;1.60;99.90
9564;DHT22;4820;50.870;4.702;2022-12-18T14:37:26;1.50;99.90
9564;DHT22;4820;50.870;4.702;2022-12-18T14:39:58;1.40;99.90
9564;DHT22;4820;50.870;4.702;2022-12-18T14:42:26;1.40;99.90
9564;DHT22;4820;50.870;4.702;2022-12-18T14:47:56;1.30;99.90
9564;DHT22;4820;50.870;4.702;2022-12-18T14:50:22;1.30;99.90
9564;DHT22;4820;50.870;4.702;2022-12-18T14:52:48;1.40;99.90
9564;DHT22;4820;50.870;4.702;2022-12-18T14:55:18;1.50;99.90
9564;DHT22;4820;50.870;4.702;2022-12-18T14:57:46;1.40;99.90
9564;DHT22;4820;50.870;4.702;2022-12-18T15:00:17;1.40;99.90
9564;DHT22;4820;50.870;4.702;2022-12-18T15:02:46;1.40;99.90
9564;DHT22;4820;50.870;4.702;2022-12-18T15:10:13;1.50;99.90
9564;DHT22;4820;50.870;4.702;2022-12-18T15:13:05;1.60;99.90
9564;DHT22;4820;50.870;4.702;2022-12-18T15:20:56;1.50;99.90
9564;DHT22;4820;50.870;4.702;2022-12-18T15:23:27;1.50;99.90
9564;DHT22;4820;50.870;4.702;2022-12-18T15:25:59;1.40;99.90
9564;DHT22;4820;50.870;4.702;2022-12-18T15:28:38;1.40;99.90
9564;DHT22;4820;50.870;4.702;2022-12-18T15:31:22;1.40;99.90
9564;DHT22;4820;50.870;4.702;2022-12-18T15:36:19;1.40;99.90
9564;DHT22;4820;50.870;4.702;2022-12-18T15:38:49;1.50;99.90
9564;DHT22;4820;50.870;4.702;2022-12-18T15:41:17;1.40;99.90
9564;DHT22;4820;50.870;4.702;2022-12-18T15:43:44;1.40;99.90
9564;DHT22;4820;50.870;4.702;2022-12-18T15:46:19;1.40;99.90
9564;DHT22;4820;50.870;4.702;2022-12-18T15:48:50;1.30;99.90
9564;DHT22;4820;50.870;4.702;2022-12-18T15:51:19;1.30;99.90
9564;DHT22;4820;50.870;4.702;2022-12-18T15:53:47;1.20;99.90
9564;DHT22;4820;50.870;4.702;2022-12-18T15:56:14;1.10;99.90
9564;DHT22;4820;50.870;4.702;2022-12-18T15:58:59;1.10;99.90
9564;DHT22;4820;50.870;4.702;2022-12-18T16:01:30;1.00;99.90
9564;DHT22;4820;50.870;4.702;2022-12-18T16:03:58;1.10;99.90
9564;DHT22;4820;50.870;4.702;2022-12-18T16:06:24;1.20;99.90
9564;DHT22;4820;50.870;4.702;2022-12-18T16:08:50;1.30;99.90
9564;DHT22;4820;50.870;4.702;2022-12-18T16:11:36;1.30;99.90
9564;DHT22;4820;50.870;4.702;2022-12-18T16:14:16;1.30;99.90
9564;DHT22;4820;50.870;4.702;2022-12-18T16:16:42;1.30;99.90
9564;DHT22;4820;50.870;4.702;2022-12-18T16:19:08;1.40;99.90
9564;DHT22;4820;50.870;4.702;2022-12-18T16:21:34;1.40;99.90
9564;DHT22;4820;50.870;4.702;2022-12-18T16:23:59;1.50;99.90
9564;DHT22;4820;50.870;4.702;2022-12-18T16:26:25;1.60;99.90
9564;DHT22;4820;50.870;4.702;2022-12-18T16:28:51;1.70;99.90
9564;DHT22;4820;50.870;4.702;2022-12-18T16:31:16;1.80;99.90
9564;DHT22;4820;50.870;4.702;2022-12-18T16:33:42;1.80;99.90
9564;DHT22;4820;50.870;4.702;2022-12-18T16:36:08;1.90;99.90
9564;DHT22;4820;50.870;4.702;2022-12-18T16:38:33;1.80;99.90
9564;DHT22;4820;50.870;4.702;2022-12-18T16:40:59;1.70;99.90
9564;DHT22;4820;50.870;4.702;2022-12-18T16:43:43;1.70;99.90
9564;DHT22;4820;50.870;4.702;2022-12-18T16:46:09;1.70;99.90
9564;DHT22;4820;50.870;4.702;2022-12-18T16:48:34;1.70;99.90
9564;DHT22;4820;50.870;4.702;2022-12-18T16:51:02;1.70;99.90
9564;DHT22;4820;50.870;4.702;2022-12-18T16:53:28;1.70;99.90
9564;DHT22;4820;50.870;4.702;2022-12-18T16:55:55;1.70;99.90
9564;DHT22;4820;50.870;4.702;2022-12-18T16:58:20;1.70;99.90
9564;DHT22;4820;50.870;4.702;2022-12-18T17:00:46;1.70;99.90
9564;DHT22;4820;50.870;4.702;2022-12-18T17:03:12;1.70;99.90
9564;DHT22;4820;50.870;4.702;2022-12-18T17:05:38;1.70;99.90
9564;DHT22;4820;50.870;4.702;2022-12-18T17:08:04;1.60;99.90
9564;DHT22;4820;50.870;4.702;2022-12-18T17:10:33;1.70;99.90
9564;DHT22;4820;50.870;4.702;2022-12-18T17:12:59;1.60;99.90
9564;DHT22;4820;50.870;4.702;2022-12-18T17:15:25;1.60;99.90
9564;DHT22;4820;50.870;4.702;2022-12-18T17:17:51;1.50;99.90
9564;DHT22;4820;50.870;4.702;2022-12-18T17:20:16;1.50;99.90
9564;DHT22;4820;50.870;4.702;2022-12-18T17:22:43;1.50;99.90
9564;DHT22;4820;50.870;4.702;2022-12-18T17:25:10;1.40;99.90
9564;DHT22;4820;50.870;4.702;2022-12-18T17:27:36;1.40;99.90
9564;DHT22;4820;50.870;4.702;2022-12-18T17:30:02;1.40;99.90
9564;DHT22;4820;50.870;4.702;2022-12-18T17:32:28;1.50;99.90
9564;DHT22;4820;50.870;4.702;2022-12-18T17:34:53;1.60;99.90
9564;DHT22;4820;50.870;4.702;2022-12-18T17:37:19;1.70;99.90
9564;DHT22;4820;50.870;4.702;2022-12-18T17:39:46;1.80;99.90
9564;DHT22;4820;50.870;4.702;2022-12-18T17:42:11;1.80;99.90
9564;DHT22;4820;50.870;4.702;2022-12-18T17:44:38;1.90;99.90
9564;DHT22;4820;50.870;4.702;2022-12-18T17:47:04;2.00;99.90
9564;DHT22;4820;50.870;4.702;2022-12-18T17:49:30;2.00;99.90
9564;DHT22;4820;50.870;4.702;2022-12-18T17:51:56;2.00;99.90
9564;DHT22;4820;50.870;4.702;2022-12-18T17:54:22;2.00;99.90
9564;DHT22;4820;50.870;4.702;2022-12-18T17:56:47;2.00;99.90
9564;DHT22;4820;50.870;4.702;2022-12-18T17:59:13;2.00;99.90
9564;DHT22;4820;50.870;4.702;2022-12-18T18:01:38;2.00;99.90
9564;DHT22;4820;50.870;4.702;2022-12-18T18:04:04;2.10;99.90
9564;DHT22;4820;50.870;4.702;2022-12-18T18:06:31;2.10;99.90
9564;DHT22;4820;50.870;4.702;2022-12-18T18:08:57;2.20;99.90
9564;DHT22;4820;50.870;4.702;2022-12-18T18:11:23;2.20;99.90
9564;DHT22;4820;50.870;4.702;2022-12-18T18:14:19;2.20;99.90
9564;DHT22;4820;50.870;4.702;2022-12-18T18:16:48;2.00;99.90